sensor_id;sensor_type;location;lat;lon;timestamp;pressure;altitude;pressure_sealevel;temperature;humidity
17781;BME280;8498;52.516;13.790;2023-01-29T00:01:14;102211.47;;;1.10;77.78
17781;BME280;8498;52.516;13.790;2023-01-29T00:06:37;102201.00;;;1.14;77.62
17781;BME280;8498;52.516;13.790;2023-01-29T00:12:00;102189.66;;;1.12;77.98
17781;BME280;8498;52.516;13.790;2023-01-29T00:17:22;102186.16;;;1.13;77.95
17781;BME280;8498;52.516;13.790;2023-01-29T00:22:45;102186.97;;;1.19;77.74
17781;BME280;8498;52.516;13.790;2023-01-29T00:28:07;102181.69;;;1.25;77.76
17781;BME280;8498;52.516;13.790;2023-01-29T00:33:30;102166.00;;;1.25;77.57
17781;BME280;8498;52.516;13.790;2023-01-29T00:38:56;102163.34;;;1.33;77.78
17781;BME280;8498;52.516;13.790;2023-01-29T00:44:24;102141.56;;;1.26;77.79
17781;BME280;8498;52.516;13.790;2023-01-29T00:50:12;102140.69;;;1.26;77.85
17781;BME280;8498;52.516;13.790;2023-01-29T00:55:35;102147.72;;;1.22;78.22
17781;BME280;8498;52.516;13.790;2023-01-29T01:00:57;102154.63;;;1.28;77.81
17781;BME280;8498;52.516;13.790;2023-01-29T01:06:19;102157.19;;;1.41;78.08
17781;BME280;8498;52.516;13.790;2023-01-29T01:11:42;102153.69;;;1.39;77.87
17781;BME280;8498;52.516;13.790;2023-01-29T01:17:04;102151.03;;;1.45;77.65
17781;BME280;8498;52.516;13.790;2023-01-29T01:22:26;102152.75;;;1.48;77.71
17781;BME280;8498;52.516;13.790;2023-01-29T01:27:54;102151.94;;;1.44;77.33
17781;BME280;8498;52.516;13.790;2023-01-29T01:33:17;102149.28;;;1.47;77.81
17781;BME280;8498;52.516;13.790;2023-01-29T01:38:39;102151.06;;;1.44;77.76
17781;BME280;8498;52.516;13.790;2023-01-29T01:44:05;102145.81;;;1.42;77.63
17781;BME280;8498;52.516;13.790;2023-01-29T01:49:28;102141.47;;;1.40;77.88
17781;BME280;8498;52.516;13.790;2023-01-29T01:54:50;102155.44;;;1.43;77.93
17781;BME280;8498;52.516;13.790;2023-01-29T02:00:15;102144.09;;;1.43;78.16
17781;BME280;8498;52.516;13.790;2023-01-29T02:05:40;102148.38;;;1.52;78.05
17781;BME280;8498;52.516;13.790;2023-01-29T02:11:21;102139.72;;;1.43;78.24
17781;BME280;8498;52.516;13.790;2023-01-29T02:16:44;102136.22;;;1.43;78.43
17781;BME280;8498;52.516;13.790;2023-01-29T02:39:13;102119.56;;;1.50;79.22
17781;BME280;8498;52.516;13.790;2023-01-29T02:44:41;102123.94;;;1.53;79.63
17781;BME280;8498;52.516;13.790;2023-01-29T02:50:24;102127.44;;;1.45;79.75
17781;BME280;8498;52.516;13.790;2023-01-29T02:55:52;102111.72;;;1.48;79.83
17781;BME280;8498;52.516;13.790;2023-01-29T03:01:23;102102.97;;;1.53;80.14
17781;BME280;8498;52.516;13.790;2023-01-29T03:06:58;102102.97;;;1.53;80.15
17781;BME280;8498;52.516;13.790;2023-01-29T03:12:25;102103.88;;;1.47;80.35
17781;BME280;8498;52.516;13.790;2023-01-29T03:18:15;102091.66;;;1.49;80.50
17781;BME280;8498;52.516;13.790;2023-01-29T03:23:39;102085.50;;;1.53;80.19
17781;BME280;8498;52.516;13.790;2023-01-29T03:29:20;102083.75;;;1.54;80.34
17781;BME280;8498;52.516;13.790;2023-01-29T03:35:04;102089.00;;;1.54;80.10
17781;BME280;8498;52.516;13.790;2023-01-29T03:40:37;102076.81;;;1.50;80.32
17781;BME280;8498;52.516;13.790;2023-01-29T03:52:43;102059.25;;;1.62;80.55
17781;BME280;8498;52.516;13.790;2023-01-29T04:04:11;102027.84;;;1.56;80.66
17781;BME280;8498;52.516;13.790;2023-01-29T04:09:53;102025.22;;;1.58;80.66
17781;BME280;8498;52.516;13.790;2023-01-29T04:15:19;102019.16;;;1.56;80.95
17781;BME280;8498;52.516;13.790;2023-01-29T04:20:44;102012.88;;;1.70;81.21
17781;BME280;8498;52.516;13.790;2023-01-29T04:26:24;101996.38;;;1.61;81.36
17781;BME280;8498;52.516;13.790;2023-01-29T04:43:32;101980.78;;;1.48;82.22
17781;BME280;8498;52.516;13.790;2023-01-29T05:00:27;101982.31;;;1.68;82.04
17781;BME280;8498;52.516;13.790;2023-01-29T05:05:53;101986.75;;;1.66;82.40
17781;BME280;8498;52.516;13.790;2023-01-29T05:11:19;101985.91;;;1.62;82.46
17781;BME280;8498;52.516;13.790;2023-01-29T05:16:46;101998.91;;;1.68;82.43
17781;BME280;8498;52.516;13.790;2023-01-29T05:22:13;101988.50;;;1.65;83.37
17781;BME280;8498;52.516;13.790;2023-01-29T05:27:36;101994.63;;;1.64;84.02
17781;BME280;8498;52.516;13.790;2023-01-29T05:33:29;102001.66;;;1.58;86.06
17781;BME280;8498;52.516;13.790;2023-01-29T05:38:51;101992.97;;;1.56;87.55
17781;BME280;8498;52.516;13.790;2023-01-29T05:44:13;101997.28;;;1.57;88.86
17781;BME280;8498;52.516;13.790;2023-01-29T05:49:36;101999.03;;;1.58;90.17
17781;BME280;8498;52.516;13.790;2023-01-29T05:54:59;101997.25;;;1.60;90.83
17781;BME280;8498;52.516;13.790;2023-01-29T06:00:21;102017.34;;;1.61;91.54
17781;BME280;8498;52.516;13.790;2023-01-29T06:05:44;102010.34;;;1.64;91.97
17781;BME280;8498;52.516;13.790;2023-01-29T06:11:08;102013.03;;;1.55;92.69
17781;BME280;8498;52.516;13.790;2023-01-29T06:16:31;102013.91;;;1.56;92.71
17781;BME280;8498;52.516;13.790;2023-01-29T06:21:54;102019.00;;;1.68;92.88
17781;BME280;8498;52.516;13.790;2023-01-29T06:27:16;102012.94;;;1.64;93.10
17781;BME280;8498;52.516;13.790;2023-01-29T06:32:38;102012.97;;;1.60;93.55
17781;BME280;8498;52.516;13.790;2023-01-29T06:38:01;102008.59;;;1.65;93.59
17781;BME280;8498;52.516;13.790;2023-01-29T06:43:23;102008.50;;;1.71;93.83
17781;BME280;8498;52.516;13.790;2023-01-29T06:48:46;102017.22;;;1.73;93.83
17781;BME280;8498;52.516;13.790;2023-01-29T06:54:09;102010.25;;;1.72;94.13
17781;BME280;8498;52.516;13.790;2023-01-29T06:59:32;102020.66;;;1.78;94.34
17781;BME280;8498;52.516;13.790;2023-01-29T07:04:54;102025.84;;;1.81;94.29
17781;BME280;8498;52.516;13.790;2023-01-29T07:10:16;102020.59;;;1.84;94.47
17781;BME280;8498;52.516;13.790;2023-01-29T07:15:40;102023.25;;;1.78;94.72
17781;BME280;8498;52.516;13.790;2023-01-29T07:21:04;101996.19;;;1.79;95.39
17781;BME280;8498;52.516;13.790;2023-01-29T07:26:28;101983.06;;;1.80;95.47
17781;BME280;8498;52.516;13.790;2023-01-29T07:31:50;102006.56;;;1.88;95.83
17781;BME280;8498;52.516;13.790;2023-01-29T07:37:13;101990.81;;;1.91;95.73
17781;BME280;8498;52.516;13.790;2023-01-29T07:42:38;102009.97;;;1.96;95.46
17781;BME280;8498;52.516;13.790;2023-01-29T07:48:06;101987.19;;;2.01;95.50
17781;BME280;8498;52.516;13.790;2023-01-29T07:53:30;101983.78;;;1.96;95.74
17781;BME280;8498;52.516;13.790;2023-01-29T07:58:53;101980.28;;;1.96;95.81
17781;BME280;8498;52.516;13.790;2023-01-29T08:04:15;101980.28;;;1.97;96.33
17781;BME280;8498;52.516;13.790;2023-01-29T08:09:38;101965.44;;;1.96;96.42
17781;BME280;8498;52.516;13.790;2023-01-29T08:15:00;101970.59;;;2.01;96.17
17781;BME280;8498;52.516;13.790;2023-01-29T08:20:22;101967.94;;;2.05;96.15
17781;BME280;8498;52.516;13.790;2023-01-29T08:25:45;101967.84;;;2.11;96.28
17781;BME280;8498;52.516;13.790;2023-01-29T08:31:18;101960.84;;;2.13;96.38
17781;BME280;8498;52.516;13.790;2023-01-29T08:36:43;101955.63;;;2.10;96.39
17781;BME280;8498;52.516;13.790;2023-01-29T08:42:06;101959.00;;;2.18;96.67
17781;BME280;8498;52.516;13.790;2023-01-29T08:47:28;101976.41;;;2.27;96.61
17781;BME280;8498;52.516;13.790;2023-01-29T08:52:56;101960.63;;;2.29;96.43
17781;BME280;8498;52.516;13.790;2023-01-29T08:58:20;101964.91;;;2.36;96.15
17781;BME280;8498;52.516;13.790;2023-01-29T09:03:42;101946.59;;;2.33;96.30
17781;BME280;8498;52.516;13.790;2023-01-29T09:09:05;101943.06;;;2.34;96.97
17781;BME280;8498;52.516;13.790;2023-01-29T09:14:28;101943.94;;;2.36;97.01
17781;BME280;8498;52.516;13.790;2023-01-29T09:19:50;101945.91;;;2.18;97.17
17781;BME280;8498;52.516;13.790;2023-01-29T09:25:14;101951.75;;;2.39;97.38
17781;BME280;8498;52.516;13.790;2023-01-29T09:30:37;101968.28;;;2.44;96.98
17781;BME280;8498;52.516;13.790;2023-01-29T09:36:02;101962.78;;;2.62;98.21
17781;BME280;8498;52.516;13.790;2023-01-29T09:47:01;101933.16;;;2.54;96.65
17781;BME280;8498;52.516;13.790;2023-01-29T09:52:32;101928.03;;;2.46;97.52
17781;BME280;8498;52.516;13.790;2023-01-29T09:58:04;101928.63;;;2.65;97.12
17781;BME280;8498;52.516;13.790;2023-01-29T10:03:40;101905.88;;;3.16;97.98
17781;BME280;8498;52.516;13.790;2023-01-29T10:26:30;101866.75;;;3.03;97.35
17781;BME280;8498;52.516;13.790;2023-01-29T10:31:57;101885.03;;;3.09;96.99
17781;BME280;8498;52.516;13.790;2023-01-29T10:37:40;101890.34;;;3.04;96.54
17781;BME280;8498;52.516;13.790;2023-01-29T10:43:21;101876.97;;;3.18;96.29
17781;BME280;8498;52.516;13.790;2023-01-29T11:00:26;101849.66;;;3.26;94.81
17781;BME280;8498;52.516;13.790;2023-01-29T11:11:21;101841.44;;;3.43;94.60
17781;BME280;8498;52.516;13.790;2023-01-29T11:16:47;101820.38;;;3.46;93.89
17781;BME280;8498;52.516;13.790;2023-01-29T11:22:16;101821.34;;;3.84;93.34
17781;BME280;8498;52.516;13.790;2023-01-29T11:27:43;101803.63;;;3.92;92.34
17781;BME280;8498;52.516;13.790;2023-01-29T11:33:20;101790.16;;;4.05;91.95
17781;BME280;8498;52.516;13.790;2023-01-29T11:39:07;101782.09;;;4.13;91.09
17781;BME280;8498;52.516;13.790;2023-01-29T11:49:55;101774.28;;;4.46;89.42
17781;BME280;8498;52.516;13.790;2023-01-29T11:55:21;101770.44;;;4.57;88.62
17781;BME280;8498;52.516;13.790;2023-01-29T12:00:47;101777.53;;;4.55;87.92
17781;BME280;8498;52.516;13.790;2023-01-29T12:06:23;101756.28;;;4.63;88.07
17781;BME280;8498;52.516;13.790;2023-01-29T12:11:46;101738.25;;;4.80;87.13
17781;BME280;8498;52.516;13.790;2023-01-29T12:17:16;101722.25;;;4.88;86.39
17781;BME280;8498;52.516;13.790;2023-01-29T12:34:22;101706.25;;;4.95;85.64
17781;BME280;8498;52.516;13.790;2023-01-29T12:39:49;101694.41;;;4.79;85.50
17781;BME280;8498;52.516;13.790;2023-01-29T12:45:21;101676.28;;;4.68;85.32
17781;BME280;8498;52.516;13.790;2023-01-29T12:50:45;101676.38;;;4.65;85.13
17781;BME280;8498;52.516;13.790;2023-01-29T12:56:17;101673.44;;;4.76;84.72
17781;BME280;8498;52.516;13.790;2023-01-29T13:01:49;101681.13;;;4.84;84.12
17781;BME280;8498;52.516;13.790;2023-01-29T13:07:21;101690.72;;;4.86;83.86
17781;BME280;8498;52.516;13.790;2023-01-29T13:13:00;101697.19;;;4.74;83.72
17781;BME280;8498;52.516;13.790;2023-01-29T13:24:03;101691.00;;;4.75;83.33
17781;BME280;8498;52.516;13.790;2023-01-29T13:29:29;101679.34;;;4.84;83.01
17781;BME280;8498;52.516;13.790;2023-01-29T13:34:55;101660.13;;;4.80;82.86
17781;BME280;8498;52.516;13.790;2023-01-29T13:40:27;101660.03;;;4.85;82.90
17781;BME280;8498;52.516;13.790;2023-01-29T13:45:52;101648.66;;;4.83;82.84
17781;BME280;8498;52.516;13.790;2023-01-29T13:51:19;101636.31;;;4.85;83.11
17781;BME280;8498;52.516;13.790;2023-01-29T13:56:45;101630.78;;;4.94;83.32
17781;BME280;8498;52.516;13.790;2023-01-29T14:02:28;101641.03;;;4.74;83.66
17781;BME280;8498;52.516;13.790;2023-01-29T14:07:51;101634.75;;;4.78;84.57
17781;BME280;8498;52.516;13.790;2023-01-29T14:18:56;101635.28;;;4.60;85.33
17781;BME280;8498;52.516;13.790;2023-01-29T14:24:23;101640.09;;;4.46;86.22
17781;BME280;8498;52.516;13.790;2023-01-29T14:29:51;101637.78;;;4.33;87.28
17781;BME280;8498;52.516;13.790;2023-01-29T14:35:25;101636.31;;;4.23;88.41
17781;BME280;8498;52.516;13.790;2023-01-29T14:40:52;101624.22;;;4.16;88.95
17781;BME280;8498;52.516;13.790;2023-01-29T14:51:55;101617.59;;;4.01;91.25
17781;BME280;8498;52.516;13.790;2023-01-29T14:57:18;101618.78;;;3.90;92.49
17781;BME280;8498;52.516;13.790;2023-01-29T15:02:43;101603.00;;;3.90;92.92
17781;BME280;8498;52.516;13.790;2023-01-29T15:08:14;101604.94;;;3.83;93.21
17781;BME280;8498;52.516;13.790;2023-01-29T15:19:49;101581.69;;;4.00;93.78
17781;BME280;8498;52.516;13.790;2023-01-29T15:25:13;101571.56;;;3.85;93.67
17781;BME280;8498;52.516;13.790;2023-01-29T15:30:37;101570.94;;;3.76;94.42
17781;BME280;8498;52.516;13.790;2023-01-29T15:36:01;101564.06;;;3.72;94.67
17781;BME280;8498;52.516;13.790;2023-01-29T15:41:29;101560.63;;;3.69;95.12
17781;BME280;8498;52.516;13.790;2023-01-29T15:46:59;101557.97;;;3.69;95.31
17781;BME280;8498;52.516;13.790;2023-01-29T15:52:26;101558.28;;;3.57;96.18
17781;BME280;8498;52.516;13.790;2023-01-29T15:57:50;101554.94;;;3.52;96.56
17781;BME280;8498;52.516;13.790;2023-01-29T16:03:13;101549.09;;;3.41;97.50
17781;BME280;8498;52.516;13.790;2023-01-29T16:08:37;101550.03;;;3.37;97.35
17781;BME280;8498;52.516;13.790;2023-01-29T16:14:01;101547.34;;;3.40;97.55
17781;BME280;8498;52.516;13.790;2023-01-29T16:19:27;101546.56;;;3.37;97.71
17781;BME280;8498;52.516;13.790;2023-01-29T16:24:50;101547.50;;;3.32;97.76
17781;BME280;8498;52.516;13.790;2023-01-29T16:30:17;101544.13;;;3.29;98.77
17781;BME280;8498;52.516;13.790;2023-01-29T16:35:40;101531.13;;;3.23;98.75
17781;BME280;8498;52.516;13.790;2023-01-29T16:41:07;101533.06;;;3.15;99.06
17781;BME280;8498;52.516;13.790;2023-01-29T16:46:36;101524.84;;;3.30;98.60
17781;BME280;8498;52.516;13.790;2023-01-29T16:57:48;101520.34;;;3.33;97.68
17781;BME280;8498;52.516;13.790;2023-01-29T17:03:12;101524.75;;;3.33;97.91
17781;BME280;8498;52.516;13.790;2023-01-29T17:08:36;101513.63;;;3.22;99.08
17781;BME280;8498;52.516;13.790;2023-01-29T17:13:59;101513.75;;;3.19;99.21
17781;BME280;8498;52.516;13.790;2023-01-29T17:19:21;101498.84;;;3.19;99.35
17781;BME280;8498;52.516;13.790;2023-01-29T17:24:46;101501.69;;;3.10;99.02
17781;BME280;8498;52.516;13.790;2023-01-29T17:30:14;101498.88;;;3.18;98.92
17781;BME280;8498;52.516;13.790;2023-01-29T17:35:37;101486.72;;;3.14;98.97
17781;BME280;8498;52.516;13.790;2023-01-29T17:41:04;101485.88;;;3.12;99.17
17781;BME280;8498;52.516;13.790;2023-01-29T17:46:28;101474.47;;;3.14;99.19
17781;BME280;8498;52.516;13.790;2023-01-29T17:51:52;101460.94;;;2.95;100.00
17781;BME280;8498;52.516;13.790;2023-01-29T17:57:15;101444.97;;;3.03;100.00
17781;BME280;8498;52.516;13.790;2023-01-29T18:02:37;101430.47;;;2.90;100.00
17781;BME280;8498;52.516;13.790;2023-01-29T18:08:00;101415.25;;;3.03;100.00
17781;BME280;8498;52.516;13.790;2023-01-29T18:13:23;101407.63;;;2.92;100.00
17781;BME280;8498;52.516;13.790;2023-01-29T18:18:46;101397.69;;;3.05;100.00
17781;BME280;8498;52.516;13.790;2023-01-29T18:24:08;101399.50;;;3.03;100.00
17781;BME280;8498;52.516;13.790;2023-01-29T18:29:30;101384.53;;;3.06;100.00
17781;BME280;8498;52.516;13.790;2023-01-29T18:34:53;101397.72;;;3.03;100.00
17781;BME280;8498;52.516;13.790;2023-01-29T18:40:16;101379.38;;;3.03;99.64
17781;BME280;8498;52.516;13.790;2023-01-29T18:45:38;101364.47;;;3.04;99.25
17781;BME280;8498;52.516;13.790;2023-01-29T18:51:01;101365.22;;;3.09;98.81
17781;BME280;8498;52.516;13.790;2023-01-29T18:56:23;101369.59;;;3.10;98.02
17781;BME280;8498;52.516;13.790;2023-01-29T19:01:45;101367.06;;;3.05;97.29
17781;BME280;8498;52.516;13.790;2023-01-29T19:07:08;101358.03;;;3.15;96.60
17781;BME280;8498;52.516;13.790;2023-01-29T19:12:32;101348.44;;;3.14;95.62
17781;BME280;8498;52.516;13.790;2023-01-29T19:17:56;101340.53;;;3.16;95.47
17781;BME280;8498;52.516;13.790;2023-01-29T19:23:20;101348.34;;;3.19;94.78
17781;BME280;8498;52.516;13.790;2023-01-29T19:28:43;101335.94;;;3.24;93.96
17781;BME280;8498;52.516;13.790;2023-01-29T19:34:06;101313.50;;;3.43;93.68
17781;BME280;8498;52.516;13.790;2023-01-29T19:39:29;101302.69;;;3.23;93.71
17781;BME280;8498;52.516;13.790;2023-01-29T19:44:54;101296.69;;;3.19;93.33
17781;BME280;8498;52.516;13.790;2023-01-29T19:50:16;101289.06;;;3.10;93.41
17781;BME280;8498;52.516;13.790;2023-01-29T19:55:39;101284.84;;;3.05;93.34
17781;BME280;8498;52.516;13.790;2023-01-29T20:01:05;101265.59;;;3.04;93.20
17781;BME280;8498;52.516;13.790;2023-01-29T20:06:28;101262.84;;;3.09;93.10
17781;BME280;8498;52.516;13.790;2023-01-29T20:11:52;101265.47;;;3.09;93.36
17781;BME280;8498;52.516;13.790;2023-01-29T20:17:15;101263.00;;;3.03;93.15
17781;BME280;8498;52.516;13.790;2023-01-29T20:22:38;101244.44;;;3.10;92.54
17781;BME280;8498;52.516;13.790;2023-01-29T20:28:00;101215.69;;;3.06;92.27
17781;BME280;8498;52.516;13.790;2023-01-29T20:33:24;101215.50;;;3.12;91.71
17781;BME280;8498;52.516;13.790;2023-01-29T20:38:46;101216.63;;;3.03;91.23
17781;BME280;8498;52.516;13.790;2023-01-29T20:44:09;101219.97;;;3.10;90.69
17781;BME280;8498;52.516;13.790;2023-01-29T20:49:31;101189.75;;;2.95;91.20
17781;BME280;8498;52.516;13.790;2023-01-29T20:54:54;101181.09;;;2.91;91.10
17781;BME280;8498;52.516;13.790;2023-01-29T21:00:17;101163.81;;;2.84;91.07
17781;BME280;8498;52.516;13.790;2023-01-29T21:05:41;101161.03;;;2.90;90.73
17781;BME280;8498;52.516;13.790;2023-01-29T21:11:04;101155.59;;;2.97;90.31
17781;BME280;8498;52.516;13.790;2023-01-29T21:16:27;101135.91;;;2.82;90.73
17781;BME280;8498;52.516;13.790;2023-01-29T21:21:49;101128.72;;;2.88;90.81
17781;BME280;8498;52.516;13.790;2023-01-29T21:27:11;101109.53;;;2.86;90.67
17781;BME280;8498;52.516;13.790;2023-01-29T21:32:34;101100.75;;;2.87;89.86
17781;BME280;8498;52.516;13.790;2023-01-29T21:37:57;101093.50;;;2.95;89.61
17781;BME280;8498;52.516;13.790;2023-01-29T21:43:19;101088.88;;;3.04;89.25
17781;BME280;8498;52.516;13.790;2023-01-29T21:48:41;101078.59;;;2.98;89.10
17781;BME280;8498;52.516;13.790;2023-01-29T21:54:04;101065.19;;;3.07;88.81
17781;BME280;8498;52.516;13.790;2023-01-29T21:59:26;101054.16;;;2.95;88.75
17781;BME280;8498;52.516;13.790;2023-01-29T22:04:48;101048.00;;;2.97;88.24
17781;BME280;8498;52.516;13.790;2023-01-29T22:10:15;101041.03;;;2.95;87.85
17781;BME280;8498;52.516;13.790;2023-01-29T22:15:38;101040.78;;;3.03;87.70
17781;BME280;8498;52.516;13.790;2023-01-29T22:21:01;101029.75;;;2.92;87.83
17781;BME280;8498;52.516;13.790;2023-01-29T22:26:23;101012.50;;;2.85;87.37
17781;BME280;8498;52.516;13.790;2023-01-29T22:31:46;101005.91;;;3.00;86.85
17781;BME280;8498;52.516;13.790;2023-01-29T22:37:08;100991.25;;;2.92;87.10
17781;BME280;8498;52.516;13.790;2023-01-29T22:42:31;100992.97;;;2.93;87.13
17781;BME280;8498;52.516;13.790;2023-01-29T22:47:54;100968.31;;;2.99;87.10
17781;BME280;8498;52.516;13.790;2023-01-29T22:53:17;100941.16;;;3.00;86.86
17781;BME280;8498;52.516;13.790;2023-01-29T22:58:39;100964.22;;;2.90;86.79
17781;BME280;8498;52.516;13.790;2023-01-29T23:04:02;100923.03;;;2.92;86.84
17781;BME280;8498;52.516;13.790;2023-01-29T23:09:24;100919.81;;;2.84;86.58
17781;BME280;8498;52.516;13.790;2023-01-29T23:14:46;100897.91;;;2.85;86.03
17781;BME280;8498;52.516;13.790;2023-01-29T23:20:09;100894.38;;;2.86;85.92
17781;BME280;8498;52.516;13.790;2023-01-29T23:25:31;100870.69;;;2.89;85.20
17781;BME280;8498;52.516;13.790;2023-01-29T23:31:13;100867.50;;;2.80;84.92
17781;BME280;8498;52.516;13.790;2023-01-29T23:36:35;100856.84;;;2.84;84.49
17781;BME280;8498;52.516;13.790;2023-01-29T23:41:58;100870.78;;;2.86;83.77
17781;BME280;8498;52.516;13.790;2023-01-29T23:47:20;100827.78;;;2.90;83.82
17781;BME280;8498;52.516;13.790;2023-01-29T23:52:43;100827.94;;;2.86;83.70
17781;BME280;8498;52.516;13.790;2023-01-29T23:58:05;100814.72;;;2.89;83.81
